SBPJ

Brigadeiro Lysias Rodrigues Airport

Palmas, Brazil
TAF SBPJ 181400Z 1818/1906 13005KT CAVOK TX33/1818Z TN21/1905Z BECMG 1900/1902 12005KT RMK PDE
Issued Valid From Valid To
Jul-18 @ 14:00 UTC
(8 hours ago)
Jul-18 @ 18:00 UTC
(4 hours ago)
Jul-19 @ 06:00 UTC
(in 8 hours)
Jul-18 @ 18:00 to Jul-19 @ 00:00
TAF SBPJ 181400Z 1818/1906 13005KT CAVOK TX33/1818Z TN21/1905Z
Wind Visibility Clouds
130° at 5 knots 10,000+ meters
  • No significant clouds
Becoming Jul-19 @ 00:00 to Jul-19 @ 06:00
BECMG 1900/1902 12005KT RMK PDE
Wind Visibility Clouds
120° at 5 knots 10,000+ meters
  • No significant clouds
TAF SBPJ 181400Z 1818/1906 13005KT CAVOK TX33/1818Z TN21/1905Z BECMG 1900/1902 12005KT RMK PDE
Issued Jul-18 @ 14:00 UTC
(8 hours ago)
Valid From Jul-18 @ 18:00 UTC
(4 hours ago)
Valid To Jul-19 @ 06:00 UTC
(in 8 hours)
Jul-18 @ 18:00 - Jul-19 @ 00:00
Wind Visibility
130° at 5 knots 10,000+ meters
Clouds
  • No significant clouds
Becoming Jul-19 @ 00:00 - Jul-19 @ 06:00
Wind Visibility
120° at 5 knots 10,000+ meters
Clouds
  • No significant clouds